createdAt,value
2023-02-21T00:02:12.948Z,15.37
2023-02-21T00:04:58.199Z,15.39
2023-02-21T00:07:43.215Z,15.39
2023-02-21T00:10:31.612Z,15.37
2023-02-21T00:13:16.758Z,15.32
2023-02-21T00:16:02.971Z,15.43
2023-02-21T00:18:52.576Z,15.42
2023-02-21T00:21:37.788Z,15.34
2023-02-21T00:24:23.310Z,15.38
2023-02-21T00:27:08.302Z,15.40
2023-02-21T00:29:53.544Z,15.41
2023-02-21T00:32:39.031Z,15.41
2023-02-21T00:35:24.330Z,15.38
2023-02-21T00:38:10.549Z,15.41
2023-02-21T00:40:56.099Z,15.41
2023-02-21T00:43:53.948Z,15.42
2023-02-21T00:46:39.583Z,15.39
2023-02-21T00:49:24.959Z,15.43
2023-02-21T00:52:10.541Z,15.42
2023-02-21T00:54:56.142Z,15.36
2023-02-21T00:57:41.549Z,15.39
2023-02-21T01:00:28.716Z,15.37
2023-02-21T01:03:13.566Z,15.35
2023-02-21T01:05:58.361Z,15.38
2023-02-21T01:08:43.642Z,15.34
2023-02-21T01:11:34.219Z,15.41
2023-02-21T01:14:19.279Z,15.38
2023-02-21T01:17:12.752Z,15.40
2023-02-21T01:19:58.667Z,15.32
2023-02-21T01:22:43.677Z,15.39
2023-02-21T01:25:28.842Z,15.40
2023-02-21T01:28:14.642Z,15.37
2023-02-21T01:30:59.804Z,15.36
2023-02-21T01:33:44.926Z,15.35
2023-02-21T01:36:30.005Z,15.32
2023-02-21T01:39:15.061Z,15.36
2023-02-21T01:42:00.736Z,15.32
2023-02-21T01:44:57.961Z,15.36
2023-02-21T01:47:43.800Z,15.35
2023-02-21T01:50:57.883Z,15.38
2023-02-21T01:53:44.561Z,15.38
2023-02-21T01:56:30.646Z,15.39
2023-02-21T01:59:18.267Z,15.33
2023-02-21T02:02:10.156Z,15.31
2023-02-21T02:04:55.369Z,15.25
2023-02-21T02:07:40.464Z,15.35
2023-02-21T02:10:27.916Z,15.33
2023-02-21T02:13:13.132Z,15.33
2023-02-21T02:16:03.692Z,15.42
2023-02-21T02:18:48.902Z,15.31
2023-02-21T02:21:27.450Z,15.33
2023-02-21T02:24:18.727Z,15.29
2023-02-21T02:27:08.143Z,15.26
2023-02-21T02:30:02.558Z,15.29
2023-02-21T02:33:06.872Z,15.27
2023-02-21T02:35:44.048Z,15.37
2023-02-21T02:38:26.848Z,15.36
2023-02-21T02:41:04.384Z,15.35
2023-02-21T02:43:38.952Z,15.33
2023-02-21T02:46:18.139Z,15.37
2023-02-21T02:48:47.241Z,15.39
2023-02-21T02:51:15.175Z,15.39
2023-02-21T02:53:41.898Z,15.34
2023-02-21T02:56:11.586Z,15.37
2023-02-21T02:58:50.815Z,15.31
2023-02-21T03:01:24.501Z,15.34
2023-02-21T03:04:19.512Z,15.29
2023-02-21T03:07:29.426Z,15.24
2023-02-21T03:10:19.230Z,15.26
2023-02-21T03:13:11.153Z,15.24
2023-02-21T03:16:03.925Z,15.26
2023-02-21T03:21:36.359Z,15.22
2023-02-21T03:24:05.055Z,15.23
2023-02-21T03:26:35.090Z,15.28
2023-02-21T03:29:02.596Z,15.27
2023-02-21T03:31:33.449Z,15.25
2023-02-21T03:34:00.084Z,15.27
2023-02-21T03:36:27.414Z,15.23
2023-02-21T03:38:53.974Z,15.25
2023-02-21T03:41:20.662Z,15.19
2023-02-21T03:43:47.241Z,15.22
2023-02-21T03:46:14.095Z,15.27
2023-02-21T03:48:40.785Z,15.25
2023-02-21T03:51:07.382Z,15.30
2023-02-21T03:53:33.948Z,15.25
2023-02-21T03:56:00.542Z,15.33
2023-02-21T03:58:27.119Z,15.18
2023-02-21T04:00:54.446Z,15.31
2023-02-21T04:03:21.309Z,15.32
2023-02-21T04:05:47.874Z,15.25
2023-02-21T04:08:14.883Z,15.27
2023-02-21T04:10:51.683Z,15.18
2023-02-21T04:13:20.129Z,15.26
2023-02-21T04:15:46.822Z,15.20
2023-02-21T04:18:13.486Z,15.27
2023-02-21T04:20:40.085Z,15.27
2023-02-21T04:23:06.645Z,15.22
2023-02-21T04:25:33.188Z,15.22
2023-02-21T04:27:59.818Z,15.27
2023-02-21T04:30:26.961Z,15.23
2023-02-21T04:32:53.777Z,15.21
2023-02-21T04:35:20.445Z,15.23
2023-02-21T04:37:47.048Z,15.20
2023-02-21T04:40:13.627Z,15.23
2023-02-21T04:42:40.269Z,15.20
2023-02-21T04:45:07.367Z,15.20
2023-02-21T04:47:33.925Z,15.22
2023-02-21T04:50:00.505Z,15.15
2023-02-21T04:52:27.130Z,15.19
2023-02-21T04:54:53.683Z,15.25
2023-02-21T04:57:20.260Z,15.22
2023-02-21T04:59:46.856Z,15.24
2023-02-21T05:02:13.553Z,15.26
2023-02-21T05:04:40.202Z,15.35
2023-02-21T05:07:06.960Z,15.23
2023-02-21T05:09:33.555Z,15.19
2023-02-21T05:12:00.211Z,15.21
2023-02-21T05:14:26.798Z,15.24
2023-02-21T05:16:53.401Z,15.19
2023-02-21T05:19:27.686Z,15.21
2023-02-21T05:21:56.016Z,15.23
2023-02-21T05:24:23.248Z,15.21
2023-02-21T05:26:50.094Z,15.22
2023-02-21T05:29:16.698Z,15.22
2023-02-21T05:31:43.297Z,15.22
2023-02-21T05:34:09.980Z,15.20
2023-02-21T05:36:37.040Z,15.20
2023-02-21T05:39:04.246Z,15.18
2023-02-21T05:41:30.874Z,15.14
2023-02-21T05:43:57.493Z,15.19
2023-02-21T05:46:33.855Z,15.21
2023-02-21T05:49:03.055Z,15.21
2023-02-21T05:51:36.371Z,15.17
2023-02-21T05:54:03.269Z,15.19
2023-02-21T05:56:29.842Z,15.18
2023-02-21T05:58:56.399Z,15.16
2023-02-21T06:01:22.987Z,15.15
2023-02-21T06:03:49.585Z,15.14
2023-02-21T06:06:16.479Z,15.18
2023-02-21T06:08:47.052Z,15.14
2023-02-21T06:11:14.209Z,15.15
2023-02-21T06:13:41.436Z,15.16
2023-02-21T06:16:08.282Z,15.21
2023-02-21T06:18:34.950Z,15.16
2023-02-21T06:21:01.525Z,15.17
2023-02-21T06:23:28.141Z,15.19
2023-02-21T06:25:54.722Z,15.22
2023-02-21T06:28:21.331Z,15.15
2023-02-21T06:30:47.957Z,15.15
2023-02-21T06:33:14.624Z,15.19
2023-02-21T06:35:41.189Z,15.18
2023-02-21T06:38:07.746Z,15.19
2023-02-21T06:40:34.331Z,15.24
2023-02-21T06:43:00.926Z,15.17
2023-02-21T06:45:27.513Z,15.18
2023-02-21T06:47:54.161Z,15.19
2023-02-21T06:50:20.719Z,15.11
2023-02-21T06:52:47.281Z,15.13
2023-02-21T06:55:13.832Z,15.20
2023-02-21T06:57:43.020Z,15.18
2023-02-21T07:00:10.338Z,15.12
2023-02-21T07:02:38.771Z,15.15
2023-02-21T07:05:06.198Z,15.15
2023-02-21T07:07:32.809Z,15.33
2023-02-21T07:09:59.897Z,15.58
2023-02-21T07:12:27.856Z,15.59
2023-02-21T07:14:55.162Z,15.75
2023-02-21T07:17:21.716Z,16.01
2023-02-21T07:19:48.286Z,16.19
2023-02-21T07:22:14.829Z,16.46
2023-02-21T07:24:43.143Z,16.67
2023-02-21T07:27:09.711Z,16.82
2023-02-21T07:29:36.270Z,17.02
2023-02-21T07:32:02.875Z,17.10
2023-02-21T07:34:29.466Z,17.20
2023-02-21T07:36:56.018Z,17.17
2023-02-21T07:39:25.387Z,17.21
2023-02-21T07:41:57.139Z,17.21
2023-02-21T07:44:23.726Z,17.14
2023-02-21T07:46:50.282Z,17.17
2023-02-21T07:49:16.933Z,17.12
2023-02-21T07:51:43.506Z,17.11
2023-02-21T07:54:10.229Z,17.10
2023-02-21T07:56:36.824Z,16.99
2023-02-21T07:59:05.956Z,16.92
2023-02-21T08:01:32.518Z,16.93
2023-02-21T08:03:59.120Z,16.90
2023-02-21T08:06:25.701Z,16.87
2023-02-21T08:08:52.301Z,16.81
2023-02-21T08:11:18.890Z,16.83
2023-02-21T08:13:45.579Z,16.78
2023-02-21T08:16:12.173Z,16.79
2023-02-21T08:18:38.877Z,16.76
2023-02-21T08:21:11.296Z,16.78
2023-02-21T08:23:37.947Z,16.67
2023-02-21T08:26:05.559Z,16.67
2023-02-21T08:28:32.219Z,16.68
2023-02-21T08:30:58.908Z,16.74
2023-02-21T08:33:30.116Z,16.66
2023-02-21T08:35:58.025Z,16.68
2023-02-21T08:38:24.618Z,16.63
2023-02-21T08:40:51.653Z,16.53
2023-02-21T08:43:18.242Z,16.60
2023-02-21T08:45:44.929Z,16.59
2023-02-21T08:48:12.304Z,16.47
2023-02-21T08:50:38.928Z,16.50
2023-02-21T08:53:05.530Z,16.52
2023-02-21T08:55:32.135Z,16.58
2023-02-21T08:57:58.817Z,16.60
2023-02-21T09:00:28.932Z,16.56
2023-02-21T09:02:56.845Z,16.61
2023-02-21T09:05:29.349Z,16.61
2023-02-21T09:07:59.236Z,16.64
2023-02-21T09:10:26.976Z,16.59
2023-02-21T09:12:53.638Z,16.58
2023-02-21T09:15:20.251Z,16.55
2023-02-21T09:17:47.122Z,16.68
2023-02-21T09:20:20.408Z,16.60
2023-02-21T09:22:50.413Z,16.65
2023-02-21T09:25:19.278Z,16.65
2023-02-21T09:27:48.105Z,16.63
2023-02-21T09:30:26.375Z,16.70
2023-02-21T09:32:54.856Z,16.68
2023-02-21T09:35:30.903Z,16.69
2023-02-21T09:37:58.473Z,16.67
2023-02-21T09:40:32.306Z,16.69
2023-02-21T09:43:00.303Z,16.60
2023-02-21T09:45:33.365Z,16.55
2023-02-21T09:48:12.589Z,16.60
2023-02-21T09:50:49.213Z,16.61
2023-02-21T09:53:28.374Z,16.62
2023-02-21T09:56:00.360Z,16.43
2023-02-21T09:58:26.927Z,16.54
2023-02-21T10:00:59.571Z,16.48
2023-02-21T10:03:35.067Z,16.46
2023-02-21T10:06:30.810Z,16.49
2023-02-21T10:09:00.032Z,16.47
2023-02-21T10:11:34.854Z,16.54
2023-02-21T10:14:18.350Z,16.45
2023-02-21T10:17:00.996Z,16.45
2023-02-21T10:19:36.747Z,16.51
2023-02-21T10:22:20.308Z,16.47
2023-02-21T10:24:49.263Z,16.45
2023-02-21T10:27:18.806Z,16.44
2023-02-21T10:29:55.431Z,16.43
2023-02-21T10:32:24.612Z,16.42
2023-02-21T10:34:51.759Z,16.47
2023-02-21T10:37:45.829Z,16.46
2023-02-21T10:40:27.448Z,16.54
2023-02-21T10:43:19.775Z,16.51
2023-02-21T10:45:58.159Z,16.50
2023-02-21T10:48:26.447Z,16.46
2023-02-21T10:51:04.847Z,16.46
2023-02-21T10:53:34.107Z,16.46
2023-02-21T10:56:15.648Z,16.46
2023-02-21T10:58:53.518Z,16.47
2023-02-21T11:01:30.301Z,16.44
2023-02-21T11:04:07.347Z,16.47
2023-02-21T11:06:35.770Z,16.43
2023-02-21T11:09:03.652Z,16.44
2023-02-21T11:11:44.729Z,16.44
2023-02-21T11:14:20.464Z,16.48
2023-02-21T11:17:10.969Z,16.48
2023-02-21T11:20:17.011Z,16.46
2023-02-21T11:22:46.178Z,16.35
2023-02-21T11:25:27.517Z,16.47
2023-02-21T11:28:15.131Z,16.48
2023-02-21T11:31:06.324Z,16.47
2023-02-21T11:33:36.874Z,16.48
2023-02-21T11:36:12.899Z,16.44
2023-02-21T11:38:45.601Z,16.47
2023-02-21T11:41:23.904Z,16.52
2023-02-21T11:43:57.409Z,16.50
2023-02-21T11:46:29.767Z,16.43
2023-02-21T11:49:18.931Z,16.49
2023-02-21T11:51:59.206Z,16.46
2023-02-21T11:54:30.288Z,16.48
2023-02-21T11:56:59.494Z,16.49
2023-02-21T11:59:50.161Z,16.51
2023-02-21T12:02:48.731Z,16.50
2023-02-21T12:05:46.063Z,16.43
2023-02-21T12:08:44.822Z,16.42
2023-02-21T12:11:32.060Z,16.37
2023-02-21T12:14:20.667Z,16.31
2023-02-21T12:16:47.213Z,16.33
2023-02-21T12:19:37.120Z,16.33
2023-02-21T12:22:13.562Z,16.39
2023-02-21T12:25:08.972Z,16.42
2023-02-21T12:27:44.351Z,16.50
2023-02-21T12:30:47.909Z,16.47
2023-02-21T12:33:25.977Z,16.45
2023-02-21T12:36:02.469Z,16.42
2023-02-21T12:38:32.203Z,16.38
2023-02-21T12:40:58.686Z,16.33
2023-02-21T12:43:50.311Z,16.34
2023-02-21T12:46:23.396Z,16.40
2023-02-21T12:49:15.503Z,16.34
2023-02-21T12:51:47.229Z,16.37
2023-02-21T12:54:20.399Z,16.39
2023-02-21T12:57:05.912Z,16.37
2023-02-21T12:59:50.745Z,16.36
2023-02-21T13:03:01.846Z,16.36
2023-02-21T13:05:42.554Z,16.41
2023-02-21T13:08:51.259Z,16.45
2023-02-21T13:11:35.761Z,16.39
2023-02-21T13:14:03.209Z,16.40
2023-02-21T13:16:31.601Z,16.52
2023-02-21T13:19:02.269Z,16.38
2023-02-21T13:21:39.843Z,16.44
2023-02-21T13:24:16.518Z,16.37
2023-02-21T13:27:02.118Z,16.43
2023-02-21T13:29:31.360Z,16.38
2023-02-21T13:32:09.538Z,16.39
2023-02-21T13:34:46.049Z,16.40
2023-02-21T13:37:23.880Z,16.40
2023-02-21T13:40:07.808Z,16.45
2023-02-21T13:42:38.106Z,16.45
2023-02-21T13:45:26.490Z,16.43
2023-02-21T13:47:53.021Z,16.43
2023-02-21T13:50:49.732Z,16.50
2023-02-21T13:53:35.385Z,16.45
2023-02-21T13:56:08.001Z,16.48
2023-02-21T13:58:38.362Z,16.46
2023-02-21T14:01:24.464Z,16.46
2023-02-21T14:03:57.536Z,16.43
2023-02-21T14:06:25.719Z,16.47
2023-02-21T14:08:58.523Z,16.42
2023-02-21T14:11:32.204Z,16.52
2023-02-21T14:14:31.330Z,16.52
2023-02-21T14:17:10.012Z,16.58
2023-02-21T14:19:39.535Z,16.50
2023-02-21T14:22:29.832Z,16.52
2023-02-21T14:25:20.590Z,16.47
2023-02-21T14:27:47.317Z,16.57
2023-02-21T14:30:24.126Z,16.50
2023-02-21T14:32:55.103Z,16.54
2023-02-21T14:35:34.558Z,16.41
2023-02-21T14:38:01.846Z,16.42
2023-02-21T14:40:34.009Z,16.48
2023-02-21T14:43:16.972Z,16.51
2023-02-21T14:46:07.453Z,16.55
2023-02-21T14:49:00.400Z,16.50
2023-02-21T14:51:57.620Z,16.45
2023-02-21T14:54:56.715Z,16.59
2023-02-21T14:58:05.320Z,16.54
2023-02-21T15:00:50.576Z,16.58
2023-02-21T15:03:28.174Z,16.62
2023-02-21T15:06:03.166Z,16.59
2023-02-21T15:08:52.122Z,16.59
2023-02-21T15:11:26.104Z,16.55
2023-02-21T15:14:14.847Z,16.58
2023-02-21T15:16:45.322Z,16.56
2023-02-21T15:19:25.581Z,16.57
2023-02-21T15:22:15.312Z,16.61
2023-02-21T15:24:42.709Z,16.56
2023-02-21T15:27:13.848Z,16.58
2023-02-21T15:29:41.145Z,16.56
2023-02-21T15:32:13.587Z,16.53
2023-02-21T15:34:42.818Z,16.57
2023-02-21T15:37:30.389Z,16.58
2023-02-21T15:40:03.628Z,16.61
2023-02-21T15:42:30.484Z,16.58
2023-02-21T15:44:58.454Z,16.58
2023-02-21T15:47:27.061Z,16.62
2023-02-21T15:50:12.253Z,16.57
2023-02-21T15:52:46.274Z,16.58
2023-02-21T15:55:18.559Z,16.57
2023-02-21T15:57:57.986Z,16.60
2023-02-21T16:00:30.445Z,16.57
2023-02-21T16:03:35.169Z,16.55
2023-02-21T16:06:27.971Z,16.60
2023-02-21T16:08:59.040Z,16.56
2023-02-21T16:11:58.478Z,16.57
2023-02-21T16:14:30.003Z,16.56
2023-02-21T16:17:23.747Z,16.51
2023-02-21T16:20:14.364Z,16.53
2023-02-21T16:23:06.291Z,16.53
2023-02-21T16:25:30.622Z,16.52
2023-02-21T16:27:59.031Z,16.57
2023-02-21T16:30:30.459Z,16.49
2023-02-21T16:33:03.373Z,16.48
2023-02-21T16:35:30.491Z,16.52
2023-02-21T16:37:58.688Z,16.62
2023-02-21T16:40:31.518Z,16.54
2023-02-21T16:42:59.061Z,16.46
2023-02-21T16:45:25.675Z,16.41
2023-02-21T16:48:07.857Z,16.39
2023-02-21T16:50:37.307Z,16.41
2023-02-21T16:53:04.449Z,16.42
2023-02-21T16:55:31.442Z,16.46
2023-02-21T16:58:09.112Z,16.40
2023-02-21T17:00:37.640Z,16.36
2023-02-21T17:03:04.393Z,16.40
2023-02-21T17:05:31.042Z,16.42
2023-02-21T17:08:14.918Z,16.39
2023-02-21T17:10:44.512Z,16.37
2023-02-21T17:13:11.367Z,16.37
2023-02-21T17:15:38.002Z,16.41
2023-02-21T17:18:04.967Z,16.38
2023-02-21T17:20:31.536Z,16.42
2023-02-21T17:22:58.493Z,16.42
2023-02-21T17:25:25.337Z,16.41
2023-02-21T17:27:55.021Z,16.35
2023-02-21T17:30:24.389Z,16.42
2023-02-21T17:32:52.390Z,16.36
2023-02-21T17:35:20.819Z,16.41
2023-02-21T17:37:49.644Z,16.44
2023-02-21T17:40:18.497Z,16.36
2023-02-21T17:42:45.074Z,16.42
2023-02-21T17:45:12.290Z,16.45
2023-02-21T17:47:38.919Z,16.38
2023-02-21T17:50:06.640Z,16.49
2023-02-21T17:52:33.265Z,16.34
2023-02-21T17:54:59.984Z,16.45
2023-02-21T17:57:26.684Z,16.39
2023-02-21T17:59:53.439Z,16.42
2023-02-21T18:02:20.864Z,16.29
2023-02-21T18:04:48.927Z,16.42
2023-02-21T18:07:15.638Z,16.41
2023-02-21T18:09:42.201Z,16.35
2023-02-21T18:12:08.791Z,16.34
2023-02-21T18:14:35.361Z,16.30
2023-02-21T18:17:02.630Z,16.40
2023-02-21T18:19:29.685Z,16.31
2023-02-21T18:21:56.283Z,16.29
2023-02-21T18:24:23.198Z,16.27
2023-02-21T18:26:50.100Z,16.33
2023-02-21T18:29:16.778Z,16.26
2023-02-21T18:31:43.370Z,16.33
2023-02-21T18:34:09.983Z,16.24
2023-02-21T18:36:36.539Z,16.23
2023-02-21T18:39:03.276Z,16.31
2023-02-21T18:41:29.873Z,16.25
2023-02-21T18:43:56.604Z,16.23
2023-02-21T18:46:24.162Z,16.28
2023-02-21T18:48:51.133Z,16.19
2023-02-21T18:51:19.905Z,16.24
2023-02-21T18:53:48.428Z,16.29
2023-02-21T18:56:19.307Z,16.34
2023-02-21T18:58:47.041Z,16.44
2023-02-21T19:01:16.054Z,16.33
2023-02-21T19:03:42.955Z,16.34
2023-02-21T19:06:12.310Z,16.27
2023-02-21T19:08:40.046Z,16.22
2023-02-21T19:11:06.910Z,16.21
2023-02-21T19:13:33.526Z,16.25
2023-02-21T19:16:01.091Z,16.25
2023-02-21T19:18:30.521Z,16.27
2023-02-21T19:20:57.435Z,16.19
2023-02-21T19:23:24.664Z,16.18
2023-02-21T19:25:51.222Z,16.17
2023-02-21T19:28:17.787Z,16.15
2023-02-21T19:30:44.572Z,16.13
2023-02-21T19:33:11.945Z,16.17
2023-02-21T19:35:39.650Z,16.17
2023-02-21T19:38:08.137Z,16.20
2023-02-21T19:40:35.929Z,16.25
2023-02-21T19:43:02.952Z,16.22
2023-02-21T19:45:30.325Z,16.17
2023-02-21T19:47:56.958Z,16.36
2023-02-21T19:50:23.623Z,16.11
2023-02-21T19:52:56.316Z,16.11
2023-02-21T19:55:23.465Z,16.11
2023-02-21T19:57:50.021Z,16.13
2023-02-21T20:00:16.756Z,16.03
2023-02-21T20:02:46.431Z,16.11
2023-02-21T20:05:16.765Z,16.06
2023-02-21T20:07:43.370Z,16.09
2023-02-21T20:10:11.198Z,16.13
2023-02-21T20:12:37.832Z,16.15
2023-02-21T20:15:05.857Z,16.12
2023-02-21T20:17:35.651Z,16.19
2023-02-21T20:20:02.330Z,16.11
2023-02-21T20:22:33.914Z,16.18
2023-02-21T20:25:01.682Z,16.15
2023-02-21T20:27:28.547Z,16.12
2023-02-21T20:29:55.424Z,16.15
2023-02-21T20:32:22.126Z,16.14
2023-02-21T20:34:50.941Z,16.13
2023-02-21T20:37:19.203Z,16.10
2023-02-21T20:39:48.872Z,16.12
2023-02-21T20:42:15.522Z,16.08
2023-02-21T20:44:44.078Z,16.08
2023-02-21T20:47:10.951Z,16.10
2023-02-21T20:49:38.837Z,16.12
2023-02-21T20:52:05.763Z,16.11
2023-02-21T20:54:32.366Z,16.12
2023-02-21T20:56:58.956Z,16.15
2023-02-21T20:59:28.349Z,16.11
2023-02-21T21:01:55.861Z,16.10
2023-02-21T21:04:28.253Z,16.15
2023-02-21T21:06:56.950Z,16.10
2023-02-21T21:09:28.939Z,16.19
2023-02-21T21:12:00.697Z,16.11
2023-02-21T21:14:29.187Z,16.09
2023-02-21T21:16:56.860Z,16.12
2023-02-21T21:19:26.091Z,16.12
2023-02-21T21:21:53.313Z,16.20
2023-02-21T21:24:20.615Z,16.10
2023-02-21T21:26:53.061Z,16.07
2023-02-21T21:29:24.562Z,16.10
2023-02-21T21:31:54.534Z,16.15
2023-02-21T21:34:25.829Z,16.06
2023-02-21T21:36:53.902Z,16.09
2023-02-21T21:39:23.328Z,16.13
2023-02-21T21:41:53.841Z,16.06
2023-02-21T21:44:23.153Z,16.05
2023-02-21T21:46:50.947Z,16.05
2023-02-21T21:49:20.772Z,16.06
2023-02-21T21:51:48.281Z,16.08
2023-02-21T21:54:17.162Z,16.10
2023-02-21T21:56:43.773Z,16.07
2023-02-21T21:59:11.311Z,16.08
2023-02-21T22:01:41.037Z,16.10
2023-02-21T22:04:12.839Z,16.06
2023-02-21T22:06:40.607Z,16.07
2023-02-21T22:09:09.250Z,16.09
2023-02-21T22:11:36.586Z,16.05
2023-02-21T22:14:03.636Z,16.07
2023-02-21T22:16:37.933Z,16.11
2023-02-21T22:19:04.806Z,16.03
2023-02-21T22:21:31.875Z,16.08
2023-02-21T22:23:58.880Z,16.05
2023-02-21T22:26:26.781Z,16.06
2023-02-21T22:28:53.371Z,16.04
2023-02-21T22:31:20.598Z,16.06
2023-02-21T22:33:47.178Z,16.13
2023-02-21T22:36:14.261Z,16.08
2023-02-21T22:38:42.386Z,16.06
2023-02-21T22:41:19.063Z,16.06
2023-02-21T22:43:52.908Z,16.17
2023-02-21T22:46:21.790Z,16.10
2023-02-21T22:48:48.507Z,16.10
2023-02-21T22:51:17.266Z,16.13
2023-02-21T22:53:50.128Z,16.06
2023-02-21T22:56:23.672Z,16.06
2023-02-21T22:58:51.415Z,16.05
2023-02-21T23:01:20.953Z,16.05
2023-02-21T23:03:48.091Z,16.09
2023-02-21T23:06:14.940Z,16.10
2023-02-21T23:08:41.744Z,16.07
2023-02-21T23:11:08.336Z,16.07
2023-02-21T23:13:34.960Z,16.02
2023-02-21T23:16:01.553Z,16.03
2023-02-21T23:18:28.968Z,16.07
2023-02-21T23:20:57.133Z,16.06
2023-02-21T23:23:27.104Z,16.06
2023-02-21T23:25:56.474Z,16.10
2023-02-21T23:28:23.122Z,16.01
2023-02-21T23:30:50.307Z,16.02
2023-02-21T23:33:19.278Z,16.08
2023-02-21T23:35:50.847Z,16.08
2023-02-21T23:38:19.555Z,16.04
2023-02-21T23:40:56.299Z,16.06
2023-02-21T23:43:25.406Z,16.09
2023-02-21T23:45:53.009Z,16.08
2023-02-21T23:48:19.601Z,16.04
2023-02-21T23:50:47.137Z,16.05
2023-02-21T23:53:16.427Z,16.03
2023-02-21T23:55:43.680Z,16.08
2023-02-21T23:58:13.243Z,16.11
